Flight Track Log - Related Links

Times and Time Zones

All times are in EDT time to prevent confusion due to time zone crossing. See the ASQ5874 flight status page for this flight to view local times or setup timezone preferences in your user account.

Time Position Orientation Groundspeed Altitude Reporting Facility
EDT Latitude Longitude Course Direction KTS MPH feet Rate Location/Type
Sat 10:58:37 AM 40.7883 -96.7539 175° South 169 194 2,900  Level Minneapolis Center
Sat 10:59:37 AM 40.7358 -96.7125 149° Southeast 242 278 4,600 1,648 Climbing Minneapolis Center
Sat 11:00:08 AM 40.7272 -96.7067 153° Southeast 214 246 5,400 2,164 Climbing Minneapolis Center
Sat 11:00:38 AM 40.6736 -96.6858 164° South 241 277 6,800 2,613 Climbing Minneapolis Center
Sat 11:01:00 AM 41.1430 -96.3495 44° Northeast  Level FlightAware Approximate
Sat 11:01:10 AM 40.6608 -96.6911 197° South 236 272 8,100  Level Minneapolis Center
Sat 11:02:00 AM 41.2187 -96.2523 44° Northeast  Level FlightAware Approximate
Sat 11:02:11 AM 40.5931 -96.6517 156° South 277 319 9,700  Level Minneapolis Center
Sat 11:03:00 AM 41.2909 -96.1504 47° Northeast  Level FlightAware Approximate
Sat 11:03:13 AM 40.5908 -96.5322 91° East 325 374 10,100  Level Minneapolis Center
Sat 11:04:15 AM 40.5886 -96.4000 91° East 355 409 12,600 2,098 Climbing Minneapolis Center
Sat 11:05:16 AM 40.5842 -96.2778 93° East 343 395 14,400 1,220 Climbing Minneapolis Center
Sat 11:06:18 AM 40.6094 -96.1572 75° East 351 404 15,100 732 Climbing Minneapolis Center
Sat 11:07:19 AM 40.6533 -96.0297 66° East 378 435 15,900 878 Climbing Minneapolis Center
Sat 11:08:21 AM 40.7003 -95.9006 64° Northeast 386 444 16,900 1,366 Climbing Minneapolis Center
Sat 11:09:22 AM 40.7572 -95.7425 65° Northeast 394 453 18,700 1,366 Climbing Minneapolis Center
Sat 11:10:24 AM 40.8042 -95.6086 65° Northeast 399 459 19,700 774 Climbing Minneapolis Center
Sat 11:11:26 AM 40.8536 -95.4697 65° Northeast 411 473 20,300 683 Climbing Minneapolis Center
Sat 11:12:27 AM 40.9039 -95.3258 65° Northeast 425 489 21,100 976 Climbing Minneapolis Center
Sat 11:13:29 AM 40.9553 -95.1819 65° Northeast 433 498 22,300 1,113 Climbing Minneapolis Center
Sat 11:14:31 AM 41.0053 -95.0386 65° Northeast 432 497 23,400 1,171 Climbing Minneapolis Center
Sat 11:15:32 AM 41.0544 -94.8961 65° Northeast 429 494 24,700 1,268 Climbing Minneapolis Center
Sat 11:16:34 AM 41.1142 -94.7269 65° Northeast 425 489 26,000 1,073 Climbing Minneapolis Center
Sat 11:17:35 AM 41.1619 -94.5856 66° East 423 487 26,900 927 Climbing Minneapolis Center
Sat 11:18:37 AM 41.2089 -94.4439 66° East 422 486 27,900 871 Climbing Minneapolis Center
Sat 11:19:39 AM 41.2575 -94.3017 66° East 423 487 28,700 537 Climbing Minneapolis Center
Sat 11:20:40 AM 41.3103 -94.1472 65° Northeast 426 490 29,000 146 Climbing Minneapolis Center
Sat 11:21:42 AM 41.3597 -93.9958 66° East 440 506 29,000  Level Minneapolis Center
Sat 11:22:43 AM 41.4139 -93.8375 65° Northeast 460 529 29,000  Level Minneapolis Center
Sat 11:23:45 AM 41.4681 -93.6761 66° East 473 544 29,000  Level Minneapolis Center
Sat 11:24:47 AM 41.5222 -93.5122 66° East 481 554 29,000  Level Minneapolis Center
Sat 11:25:48 AM 41.5778 -93.3444 66° East 491 565 29,000  Level Minneapolis Center
Sat 11:26:50 AM 41.6431 -93.1458 66° East 490 564 29,000  Level Minneapolis Center
Sat 11:27:52 AM 41.6969 -92.9786 67° East 491 565 29,000  Level Minneapolis Center
Sat 11:28:53 AM 41.7514 -92.8125 66° East 491 565 29,000  Level Minneapolis Center
Sat 11:29:23 AM 41.7756 -92.7319 68° East 491 565 29,000  Level Chicago Center
Sat 11:30:25 AM 41.8289 -92.5642 67° East 494 568 29,000  Level Chicago Center
Sat 11:31:27 AM 41.8836 -92.3961 66° East 497 572 29,000  Level Chicago Center
Sat 11:32:29 AM 41.9461 -92.1967 67° East 491 565 29,000  Level Chicago Center
Sat 11:33:30 AM 41.9997 -92.0264 67° East 497 572 29,000  Level Chicago Center
Sat 11:34:32 AM 42.0522 -91.8572 67° East 496 571 29,000  Level Chicago Center
Sat 11:35:34 AM 42.1050 -91.6875 67° East 499 574 29,000  Level Chicago Center
Sat 11:36:36 AM 42.1567 -91.5167 68° East 500 575 29,000  Level Chicago Center
Sat 11:37:37 AM 42.2181 -91.3175 67° East 490 564 29,000  Level Chicago Center
Sat 11:38:39 AM 42.2681 -91.1542 67° East 481 554 29,000 -387 Level Chicago Center
Sat 11:39:41 AM 42.3181 -90.9869 68° East 486 559 28,200 -1,258 Descending Chicago Center
Sat 11:40:43 AM 42.3661 -90.8236 68° East 480 552 26,400 -1,790 Descending Chicago Center
Sat 11:41:45 AM 42.4069 -90.6517 72° East 487 560 24,500 -1,171 Descending Chicago Center
Sat 11:42:46 AM 42.4286 -90.4364 82° East 487 560 24,000 -244 Descending Chicago Center
Sat 11:43:48 AM 42.4467 -90.2567 82° East 488 562 24,000 -290 Level Chicago Center
Sat 11:44:50 AM 42.4639 -90.0764 83° East 488 562 23,400 -1,161 Descending Chicago Center
Sat 11:45:52 AM 42.4836 -89.8778 82° East 481 554 21,600 -1,742 Descending Chicago Center
Sat 11:46:54 AM 42.5006 -89.7006 83° East 476 548 19,800 -1,951 Descending Chicago Center
Sat 11:47:55 AM 42.5172 -89.5283 82° East 465 535 17,600 -2,032 Descending Chicago Center
Sat 11:48:58 AM 42.5325 -89.3636 83° East 447 514 15,600 -1,258 Descending Chicago Center
Sat 11:49:59 AM 42.5464 -89.2097 83° East 420 483 15,000 -439 Descending Chicago Center
Sat 11:51:01 AM 42.5439 -89.0642 91° East 345 397 14,700 -927 Descending Chicago Center
Sat 11:52:02 AM 42.5086 -88.9453 112° Southeast 339 390 13,100 -1,512 Descending Chicago Center
Sat 11:53:04 AM 42.4756 -88.8314 111° Southeast 329 379 11,600 -1,452 Descending Chicago Center
Sat 11:54:06 AM 42.4425 -88.7256 113° Southeast 312 359 10,100 -1,210 Descending Chicago Center
Sat 11:55:08 AM 42.4131 -88.6239 111° Southeast 298 343 9,100 -537 Descending Chicago Center
Sat 11:56:09 AM 42.3828 -88.5261 113° Southeast 288 331 9,000 -97 Descending Chicago Center
Sat 11:57:12 AM 42.3483 -88.4169 113° Southeast 278 320 8,900 -387 Descending Chicago Center
Sat 11:58:13 AM 42.3172 -88.3406 119° Southeast 273 314 8,200 -878 Descending Chicago Center
Sat 11:59:15 AM 42.2639 -88.2439 127° Southeast 276 318 7,100 -667 Descending Chicago Center
Sat 12:00:19 PM 42.2119 -88.1836 139° Southeast 255 293 6,800 -762 Descending Chicago Center
Sat 12:01:21 PM 42.1636 -88.1294 140° Southeast 235 270 5,500 -1,261 Descending Chicago Center
Sat 12:02:18 PM 42.1167 -88.0833 144° Southeast 184 212 4,300 -1,263 Descending Chicago TRACON

Login

Don't have an account? Register now (free) for customized features, flight alerts, and more!